Time;durP1;ratioP1;P1;durP2;ratioP2;P2;SDS_P1;SDS_P2;PMS_P1;PMS_P2;Temp;Humidity;BMP_temperature;BMP_pressure;BME280_temperature;BME280_humidity;BME280_pressure;Samples;Min_cycle;Max_cycle;Signal;HPM_P1;HPM_P2
2022/12/01 00:02:14;;;;;;;105.95;50.30;;;5.60;95.80;;;;;;4962800;28;20046;-77
2022/12/01 00:04:40;;;;;;;97.50;47.92;;;5.60;95.80;;;;;;4964095;28;20031;-78
2022/12/01 00:07:05;;;;;;;101.18;48.88;;;5.60;95.80;;;;;;4957853;28;20129;-76
2022/12/01 00:12:15;;;;;;;136.57;52.03;;;5.60;95.80;;;;;;4966066;28;20037;-75
2022/12/01 00:14:41;;;;;;;114.40;50.42;;;5.50;95.80;;;;;;4970613;28;20026;-79
2022/12/01 00:17:06;;;;;;;96.68;49.42;;;5.60;95.80;;;;;;4964135;28;20058;-75
2022/12/01 00:19:32;;;;;;;109.28;49.58;;;5.60;95.80;;;;;;4971213;28;20070;-76
2022/12/01 00:21:57;;;;;;;129.13;49.03;;;5.60;95.90;;;;;;4964320;28;20042;-76
2022/12/01 00:24:24;;;;;;;102.03;46.72;;;5.60;95.80;;;;;;4967642;28;20034;-77
2022/12/01 00:26:49;;;;;;;110.85;46.30;;;5.60;95.80;;;;;;4969371;28;20054;-77
2022/12/01 00:29:15;;;;;;;117.88;48.20;;;5.60;95.80;;;;;;4969275;28;20034;-76
2022/12/01 00:31:41;;;;;;;133.00;45.40;;;5.60;95.80;;;;;;4961291;28;20099;-80
2022/12/01 00:34:11;;;;;;;100.55;42.20;;;5.60;95.70;;;;;;4968757;28;20042;-76
2022/12/01 00:36:37;;;;;;;73.28;41.60;;;5.50;95.60;;;;;;4966573;28;20031;-76
2022/12/01 00:39:03;;;;;;;95.95;42.30;;;5.40;95.60;;;;;;4967453;28;20031;-75
2022/12/01 00:41:28;;;;;;;90.18;42.17;;;5.40;95.60;;;;;;4967756;28;20453;-75
2022/12/01 00:43:54;;;;;;;108.65;44.95;;;5.40;95.60;;;;;;4961154;28;20034;-76
2022/12/01 00:46:19;;;;;;;103.50;43.75;;;5.50;95.50;;;;;;4965042;28;20073;-77
2022/12/01 00:48:45;;;;;;;98.07;41.42;;;5.40;95.40;;;;;;4966841;28;20725;-75
2022/12/01 00:51:11;;;;;;;108.50;44.60;;;5.40;95.40;;;;;;4957746;28;20033;-78
2022/12/01 00:53:36;;;;;;;92.35;43.85;;;5.40;95.40;;;;;;4969217;28;20118;-76
2022/12/01 00:56:02;;;;;;;92.15;45.05;;;5.40;95.40;;;;;;4969504;28;20378;-75
2022/12/01 00:58:28;;;;;;;112.22;42.47;;;5.40;95.40;;;;;;4961643;28;20035;-78
2022/12/01 01:01:01;;;;;;;89.47;43.83;;;5.40;95.50;;;;;;4965151;28;20439;-76
2022/12/01 01:03:28;;;;;;;118.13;44.47;;;5.50;95.40;;;;;;4962839;28;20039;-76
2022/12/01 01:05:54;;;;;;;147.73;47.95;;;5.40;95.50;;;;;;4963421;28;20035;-77
2022/12/01 01:08:19;;;;;;;137.82;50.28;;;5.40;95.40;;;;;;4971960;28;20030;-78
2022/12/01 01:10:46;;;;;;;333.35;58.40;;;5.40;95.50;;;;;;4969838;28;20502;-75
2022/12/01 01:13:13;;;;;;;116.70;47.90;;;5.30;95.40;;;;;;4966239;28;20059;-77
2022/12/01 01:15:39;;;;;;;293.05;51.50;;;5.30;95.50;;;;;;4973938;28;20046;-75
2022/12/01 01:18:06;;;;;;;110.95;45.67;;;5.30;95.40;;;;;;4971321;28;20038;-75
2022/12/01 01:20:32;;;;;;;101.50;46.53;;;5.30;95.50;;;;;;4973644;28;20055;-75
2022/12/01 01:22:58;;;;;;;98.55;44.15;;;5.30;95.50;;;;;;4966506;28;20134;-76
2022/12/01 01:25:24;;;;;;;106.40;46.72;;;5.30;95.50;;;;;;4971868;28;20035;-79
2022/12/01 01:27:50;;;;;;;92.30;43.25;;;5.20;95.50;;;;;;4961972;28;20391;-75
2022/12/01 01:30:16;;;;;;;117.78;43.65;;;5.30;95.50;;;;;;4966818;28;20024;-78
2022/12/01 01:32:41;;;;;;;94.38;41.08;;;5.20;95.50;;;;;;4958491;28;20034;-79
2022/12/01 01:35:07;;;;;;;123.70;42.08;;;5.20;95.50;;;;;;4966119;28;20046;-75
2022/12/01 01:37:33;;;;;;;133.52;43.03;;;5.10;95.40;;;;;;4965735;28;20039;-75
2022/12/01 01:39:59;;;;;;;147.60;41.53;;;5.00;95.50;;;;;;4963871;28;20566;-74
2022/12/01 01:42:24;;;;;;;180.15;44.20;;;5.00;95.50;;;;;;4969621;28;20332;-75
2022/12/01 01:44:57;;;;;;;122.53;42.65;;;5.00;95.50;;;;;;4966775;28;20046;-76
2022/12/01 01:47:25;;;;;;;102.93;41.55;;;4.90;95.40;;;;;;4963679;28;20066;-74
2022/12/01 01:49:52;;;;;;;130.02;41.33;;;4.80;95.50;;;;;;4970960;28;20558;-74
2022/12/01 01:52:18;;;;;;;159.73;43.75;;;4.70;95.50;;;;;;4964592;28;20082;-77
2022/12/01 01:54:48;;;;;;;93.47;41.50;;;4.60;95.50;;;;;;4968059;28;20027;-75
2022/12/01 01:57:19;;;;;;;140.93;42.75;;;4.60;95.60;;;;;;4965265;28;20053;-76
2022/12/01 01:59:50;;;;;;;79.43;41.00;;;4.60;95.60;;;;;;4970107;28;20031;-76
2022/12/01 02:02:16;;;;;;;100.65;40.47;;;4.70;95.70;;;;;;4967278;28;20036;-79
2022/12/01 02:04:47;;;;;;;117.13;40.92;;;4.60;95.70;;;;;;4977201;28;20057;-76
2022/12/01 02:07:15;;;;;;;83.40;39.53;;;4.70;95.70;;;;;;4963823;28;20227;-75
2022/12/01 02:09:41;;;;;;;123.90;42.63;;;4.60;95.70;;;;;;4969049;28;20048;-78
2022/12/01 02:12:33;;;;;;;93.68;39.85;;;4.50;95.60;;;;;;4969250;28;20447;-75
2022/12/01 02:15:18;;;;;;;65.18;36.67;;;4.50;95.70;;;;;;4965370;28;20043;-77
2022/12/01 02:17:54;;;;;;;100.78;39.00;;;4.60;95.80;;;;;;4967591;28;20065;-75
2022/12/01 02:20:57;;;;;;;135.18;43.40;;;4.60;95.80;;;;;;4967770;28;20065;-77
2022/12/01 02:23:51;;;;;;;68.05;38.80;;;4.60;95.70;;;;;;4972277;28;20097;-78
2022/12/01 02:26:25;;;;;;;109.80;42.53;;;4.60;95.80;;;;;;4965563;28;20466;-75
2022/12/01 02:29:26;;;;;;;101.75;42.20;;;4.60;95.70;;;;;;4963175;28;20075;-76
2022/12/01 02:31:57;;;;;;;101.60;39.85;;;4.60;95.80;;;;;;4936772;28;20050;-77
2022/12/01 02:34:42;;;;;;;73.15;39.13;;;4.60;95.80;;;;;;4966854;28;20061;-76
2022/12/01 02:37:27;;;;;;;74.13;36.85;;;4.60;95.70;;;;;;4964114;28;20035;-75
2022/12/01 02:40:16;;;;;;;102.68;39.60;;;4.60;95.80;;;;;;4971381;28;20030;-74
2022/12/01 02:43:06;;;;;;;77.53;37.10;;;4.60;95.70;;;;;;4968828;28;20451;-75
2022/12/01 02:45:41;;;;;;;122.30;37.25;;;4.60;95.70;;;;;;4962331;28;20035;-77
2022/12/01 02:48:29;;;;;;;110.00;36.95;;;4.60;95.70;;;;;;4966550;28;20042;-77
2022/12/01 02:50:59;;;;;;;103.10;37.45;;;4.50;95.60;;;;;;4959228;28;20039;-76
2022/12/01 02:53:25;;;;;;;185.63;43.83;;;4.40;95.60;;;;;;4965450;28;20188;-75
2022/12/01 02:55:54;;;;;;;120.18;38.85;;;4.30;95.60;;;;;;4970047;28;20248;-74
2022/12/01 02:58:20;;;;;;;135.55;38.53;;;4.20;95.60;;;;;;4965411;28;20039;-75
2022/12/01 03:01:06;;;;;;;142.75;40.05;;;4.20;95.60;;;;;;4971586;28;20031;-76
2022/12/01 03:03:56;;;;;;;114.57;38.63;;;4.10;95.60;;;;;;4968475;28;20045;-75
2022/12/01 03:06:39;;;;;;;130.02;39.38;;;4.20;95.70;;;;;;4966461;28;20070;-77
2022/12/01 03:09:11;;;;;;;129.85;39.47;;;4.10;95.70;;;;;;4967036;28;20119;-74
2022/12/01 03:12:00;;;;;;;108.03;39.70;;;4.10;95.70;;;;;;4964393;28;20125;-74
2022/12/01 03:14:45;;;;;;;90.40;39.22;;;4.10;95.80;;;;;;4982222;28;20039;-76
2022/12/01 03:17:17;;;;;;;77.50;36.80;;;4.10;95.90;;;;;;4967169;28;20385;-76
2022/12/01 03:20:02;;;;;;;99.32;43.38;;;4.10;95.80;;;;;;4967012;28;20057;-76
2022/12/01 03:22:44;;;;;;;95.03;43.60;;;4.20;95.90;;;;;;4961053;28;20105;-77
2022/12/01 03:25:12;;;;;;;96.72;44.97;;;4.20;95.90;;;;;;4969633;28;20031;-75
2022/12/01 03:27:42;;;;;;;90.43;45.20;;;4.30;96.00;;;;;;4965891;28;20074;-75
2022/12/01 03:30:09;;;;;;;90.40;44.22;;;4.30;96.00;;;;;;4968615;28;20074;-75
2022/12/01 03:32:47;;;;;;;89.32;44.03;;;4.40;96.00;;;;;;4966083;28;20511;-74
2022/12/01 03:35:19;;;;;;;91.57;43.85;;;4.40;95.90;;;;;;4966407;28;20034;-76
2022/12/01 03:37:58;;;;;;;89.03;43.97;;;4.40;95.90;;;;;;4961817;28;20065;-79
2022/12/01 03:40:26;;;;;;;80.35;42.42;;;4.40;95.90;;;;;;4970301;28;20038;-79
2022/12/01 03:42:56;;;;;;;80.55;43.28;;;4.40;95.90;;;;;;4968653;28;20050;-77
2022/12/01 03:45:49;;;;;;;85.22;42.63;;;4.50;95.90;;;;;;4971471;28;20118;-76
2022/12/01 03:48:15;;;;;;;84.97;45.25;;;4.40;95.80;;;;;;4968299;28;20042;-76
2022/12/01 03:50:53;;;;;;;82.95;43.55;;;4.40;95.80;;;;;;4968544;28;20257;-74
2022/12/01 03:53:26;;;;;;;81.75;44.75;;;4.50;95.80;;;;;;4967199;28;20455;-77
2022/12/01 03:56:00;;;;;;;86.47;44.58;;;4.50;95.80;;;;;;4958596;28;20412;-76
2022/12/01 03:58:40;;;;;;;87.03;45.10;;;4.60;95.70;;;;;;4958887;28;20034;-77
2022/12/01 04:01:06;;;;;;;80.43;43.45;;;4.60;95.60;;;;;;4972124;28;20288;-75
2022/12/01 04:03:32;;;;;;;83.65;45.50;;;4.60;95.40;;;;;;4967824;28;20046;-78
2022/12/01 04:05:58;;;;;;;84.82;46.30;;;4.60;95.40;;;;;;4970328;28;20038;-75
2022/12/01 04:08:24;;;;;;;81.30;44.08;;;4.50;95.00;;;;;;4961416;28;20467;-76
2022/12/01 04:10:50;;;;;;;86.20;46.50;;;4.60;95.10;;;;;;4986838;28;20050;-75
2022/12/01 04:13:21;;;;;;;84.15;44.00;;;4.60;95.10;;;;;;4967876;28;20041;-75
2022/12/01 04:15:54;;;;;;;84.90;43.80;;;4.70;95.10;;;;;;4972082;28;20398;-77
2022/12/01 04:18:20;;;;;;;81.05;43.70;;;4.70;95.10;;;;;;4959566;28;20043;-78
2022/12/01 04:20:47;;;;;;;82.65;44.13;;;4.70;95.00;;;;;;4960345;28;20051;-75
2022/12/01 04:23:58;;;;;;;77.82;43.80;;;4.70;95.00;;;;;;4971574;28;20672;-76
2022/12/01 04:26:03;;;;;;;85.00;45.88;;;4.70;95.00;;;;;;4969567;28;20035;-78
2022/12/01 04:28:28;;;;;;;74.18;40.90;;;4.70;95.00;;;;;;4962268;28;20065;-76
2022/12/01 04:30:54;;;;;;;79.13;43.70;;;4.70;94.80;;;;;;4970029;28;20034;-75
2022/12/01 04:33:20;;;;;;;76.65;40.83;;;4.70;94.70;;;;;;4963743;28;20066;-75
2022/12/01 04:35:54;;;;;;;74.97;42.25;;;4.70;94.60;;;;;;4969797;28;20463;-77
2022/12/01 04:38:20;;;;;;;72.95;40.67;;;4.70;94.50;;;;;;4966541;28;20482;-76
2022/12/01 04:40:46;;;;;;;74.60;41.30;;;4.60;94.40;;;;;;4965157;28;20065;-76
2022/12/01 04:43:11;;;;;;;70.18;38.85;;;4.60;94.30;;;;;;4966748;28;20039;-77
2022/12/01 04:45:37;;;;;;;75.47;40.30;;;4.60;94.40;;;;;;4966376;28;20045;-76
2022/12/01 04:48:03;;;;;;;72.88;40.67;;;4.60;94.30;;;;;;4967244;28;20050;-76
2022/12/01 04:50:29;;;;;;;71.88;39.65;;;4.60;94.30;;;;;;4967525;28;20046;-78
2022/12/01 04:52:55;;;;;;;71.63;41.08;;;4.60;94.30;;;;;;4965886;28;20050;-76
2022/12/01 04:55:21;;;;;;;74.95;41.60;;;4.60;94.20;;;;;;4965638;28;20054;-76
2022/12/01 04:57:47;;;;;;;70.20;39.38;;;4.70;94.20;;;;;;4967397;28;20038;-75
2022/12/01 05:00:13;;;;;;;70.70;39.05;;;4.70;94.10;;;;;;4964372;28;20555;-75
2022/12/01 05:02:42;;;;;;;69.57;40.17;;;4.70;94.00;;;;;;4969597;28;20062;-75
2022/12/01 05:05:11;;;;;;;70.82;39.63;;;4.70;94.00;;;;;;4969958;28;20033;-77
2022/12/01 05:07:37;;;;;;;70.38;39.17;;;4.70;94.10;;;;;;4966890;28;20038;-76
2022/12/01 05:10:03;;;;;;;67.60;39.00;;;4.80;94.00;;;;;;4962056;28;20033;-79
2022/12/01 05:12:29;;;;;;;61.83;36.78;;;4.70;93.70;;;;;;4967318;28;20843;-76
2022/12/01 05:14:54;;;;;;;60.28;35.72;;;4.70;93.70;;;;;;4964831;28;20035;-77
2022/12/01 05:17:20;;;;;;;64.03;36.50;;;4.60;93.30;;;;;;4963300;28;20038;-78
2022/12/01 05:22:30;;;;;;;61.03;36.58;;;4.60;93.20;;;;;;4966508;28;20119;-79
2022/12/01 05:24:56;;;;;;;63.30;37.40;;;4.60;93.10;;;;;;4962721;28;20122;-75
2022/12/01 05:27:21;;;;;;;66.57;38.03;;;4.60;93.10;;;;;;4959230;28;20043;-77
2022/12/01 05:29:47;;;;;;;64.63;38.30;;;4.60;93.10;;;;;;4962072;28;20046;-76
2022/12/01 05:32:12;;;;;;;64.70;37.30;;;4.50;93.10;;;;;;4962512;28;20046;-76
2022/12/01 05:34:38;;;;;;;65.53;39.17;;;4.50;93.10;;;;;;4959328;28;20053;-78
2022/12/01 05:37:04;;;;;;;64.53;36.08;;;4.40;93.20;;;;;;4972689;28;20037;-76
2022/12/01 05:39:30;;;;;;;64.57;37.03;;;4.40;93.20;;;;;;4962825;28;20046;-78
2022/12/01 05:41:55;;;;;;;63.78;37.47;;;4.40;93.20;;;;;;4954705;28;20162;-76
2022/12/01 05:44:21;;;;;;;67.85;38.47;;;4.30;93.20;;;;;;4967195;28;20046;-75
2022/12/01 05:46:47;;;;;;;65.43;38.42;;;4.30;93.30;;;;;;4959145;28;20031;-77
2022/12/01 05:49:13;;;;;;;67.05;38.05;;;4.20;93.40;;;;;;4959138;28;20039;-76
2022/12/01 05:51:39;;;;;;;59.75;36.58;;;4.20;93.40;;;;;;4959455;28;20061;-76
2022/12/01 05:54:04;;;;;;;59.75;35.67;;;4.20;93.40;;;;;;4966622;28;20473;-75
2022/12/01 05:56:30;;;;;;;63.75;36.70;;;4.10;93.50;;;;;;4967850;28;20213;-75
2022/12/01 05:58:55;;;;;;;65.10;36.50;;;4.10;93.60;;;;;;4967457;28;20400;-76
2022/12/01 06:01:21;;;;;;;57.30;35.60;;;4.10;93.60;;;;;;4967569;28;20049;-74
2022/12/01 06:03:46;;;;;;;64.57;37.25;;;4.00;93.70;;;;;;4971077;28;20035;-76
2022/12/01 06:06:12;;;;;;;64.30;36.95;;;4.00;93.80;;;;;;4963989;28;20131;-75
2022/12/01 06:08:38;;;;;;;63.67;34.20;;;4.00;93.80;;;;;;4962711;28;20051;-74
2022/12/01 06:11:04;;;;;;;61.97;36.65;;;4.00;93.80;;;;;;4968473;28;20046;-76
2022/12/01 06:13:30;;;;;;;59.22;36.28;;;4.00;93.80;;;;;;4967952;28;20381;-74
2022/12/01 06:16:01;;;;;;;61.85;37.60;;;4.00;93.80;;;;;;4973775;28;20088;-79
2022/12/01 06:18:30;;;;;;;66.65;45.47;;;4.00;93.80;;;;;;4960532;28;20169;-76
2022/12/01 06:20:55;;;;;;;69.88;48.47;;;4.00;93.80;;;;;;4965263;28;20039;-76
2022/12/01 06:23:21;;;;;;;70.00;42.83;;;4.00;93.80;;;;;;4962267;28;20039;-79
2022/12/01 06:25:47;;;;;;;61.58;39.15;;;4.00;93.90;;;;;;4964707;28;20042;-76
2022/12/01 06:28:13;;;;;;;66.72;40.65;;;4.10;93.80;;;;;;4966472;28;20043;-76
2022/12/01 06:30:39;;;;;;;65.90;40.20;;;4.10;93.80;;;;;;4984666;28;20039;-79
2022/12/01 06:33:05;;;;;;;63.95;37.10;;;4.10;93.80;;;;;;4971700;28;20112;-75
2022/12/01 06:35:30;;;;;;;65.75;37.75;;;4.10;93.70;;;;;;4961668;28;20085;-80
2022/12/01 06:37:56;;;;;;;69.35;39.22;;;4.20;93.70;;;;;;4965715;28;20035;-79
2022/12/01 06:40:22;;;;;;;67.22;38.72;;;4.20;93.70;;;;;;4964667;28;20035;-76
2022/12/01 06:42:47;;;;;;;64.75;37.85;;;4.10;93.70;;;;;;4966220;28;20097;-83
2022/12/01 06:45:13;;;;;;;64.82;37.53;;;4.20;93.60;;;;;;4968091;28;20038;-78
2022/12/01 06:47:39;;;;;;;65.22;39.45;;;4.10;93.60;;;;;;4962042;28;20059;-78
2022/12/01 06:50:07;;;;;;;65.18;38.30;;;4.20;93.70;;;;;;4963628;28;20102;-80
2022/12/01 06:52:36;;;;;;;69.78;41.15;;;4.20;93.70;;;;;;4959344;28;20035;-77
2022/12/01 06:55:03;;;;;;;84.43;45.85;;;4.30;93.70;;;;;;4961692;28;20486;-76
2022/12/01 06:57:29;;;;;;;76.22;43.88;;;4.20;93.70;;;;;;4964372;28;20065;-76
2022/12/01 06:59:54;;;;;;;76.03;44.35;;;4.20;93.70;;;;;;4967995;28;20612;-78
2022/12/01 07:02:20;;;;;;;77.93;42.67;;;4.20;93.80;;;;;;4965141;28;20038;-82
2022/12/01 07:04:46;;;;;;;73.38;41.22;;;4.30;93.90;;;;;;4968719;28;20027;-77
2022/12/01 07:07:12;;;;;;;74.85;41.47;;;4.30;93.80;;;;;;4968252;28;20487;-81
2022/12/01 07:09:38;;;;;;;71.45;42.95;;;4.30;93.80;;;;;;4975848;28;20113;-80
2022/12/01 07:12:04;;;;;;;78.75;42.55;;;4.20;93.80;;;;;;4979496;28;20656;-80
2022/12/01 07:14:30;;;;;;;78.55;42.47;;;4.30;93.90;;;;;;4986665;28;20125;-85
2022/12/01 07:16:57;;;;;;;76.60;42.78;;;4.20;93.90;;;;;;4977503;28;20058;-76
2022/12/01 07:19:23;;;;;;;73.63;41.65;;;4.20;93.90;;;;;;4974487;28;20523;-75
2022/12/01 07:21:49;;;;;;;75.20;41.55;;;4.20;94.00;;;;;;4972513;28;20090;-76
2022/12/01 07:24:15;;;;;;;70.78;41.70;;;4.20;94.00;;;;;;4969970;28;20118;-78
2022/12/01 07:26:41;;;;;;;74.80;41.15;;;4.30;94.10;;;;;;4970447;28;20051;-73
2022/12/01 07:29:08;;;;;;;74.53;42.70;;;4.30;94.10;;;;;;4964846;28;20042;-75
2022/12/01 07:31:34;;;;;;;75.47;41.65;;;4.30;94.10;;;;;;4974755;28;20184;-74
2022/12/01 07:34:00;;;;;;;72.32;43.72;;;4.30;94.10;;;;;;4964509;28;20031;-78
2022/12/01 07:36:26;;;;;;;75.50;42.50;;;4.40;94.10;;;;;;4967280;28;20624;-76
2022/12/01 07:38:51;;;;;;;76.68;43.08;;;4.40;94.00;;;;;;4968456;28;20383;-73
2022/12/01 07:41:18;;;;;;;82.32;43.70;;;4.30;94.00;;;;;;4974455;28;20545;-75
2022/12/01 07:43:44;;;;;;;74.25;42.88;;;4.20;93.90;;;;;;4966158;28;20031;-76
2022/12/01 07:46:18;;;;;;;75.88;44.47;;;4.30;94.00;;;;;;4964979;28;20031;-76
2022/12/01 07:48:44;;;;;;;82.45;44.47;;;4.20;94.00;;;;;;4965431;28;20036;-75
2022/12/01 07:51:15;;;;;;;80.63;44.88;;;4.20;94.00;;;;;;4961981;28;20094;-75
2022/12/01 07:53:41;;;;;;;83.22;45.33;;;4.30;94.10;;;;;;4957446;28;20124;-74
2022/12/01 07:56:07;;;;;;;81.93;46.25;;;4.30;94.00;;;;;;4961572;28;20035;-77
2022/12/01 07:58:33;;;;;;;80.25;42.05;;;4.30;94.00;;;;;;4976945;28;20074;-77
2022/12/01 08:01:08;;;;;;;76.18;43.00;;;4.40;94.10;;;;;;4967529;28;20467;-75
2022/12/01 08:03:33;;;;;;;;;;;4.40;94.10;;;;;;4954028;28;20075;-75
2022/12/01 08:06:00;;;;;;;77.53;40.75;;;4.40;94.00;;;;;;4959504;28;20307;-75
2022/12/01 08:08:26;;;;;;;78.22;42.60;;;4.40;94.10;;;;;;4963677;28;20188;-74
2022/12/01 08:10:52;;;;;;;79.90;42.97;;;4.40;94.00;;;;;;4957619;28;20047;-78
2022/12/01 08:13:19;;;;;;;81.47;42.75;;;4.40;94.00;;;;;;4960218;28;20030;-81
2022/12/01 08:15:45;;;;;;;79.70;44.70;;;4.40;94.10;;;;;;4957801;28;20101;-81
2022/12/01 08:18:11;;;;;;;79.75;44.55;;;4.50;94.10;;;;;;4962495;28;20030;-81
2022/12/01 08:20:36;;;;;;;78.70;43.80;;;4.50;94.10;;;;;;4957372;28;20054;-80
2022/12/01 08:23:03;;;;;;;77.80;43.33;;;4.60;94.10;;;;;;4965665;28;20047;-80
2022/12/01 08:25:29;;;;;;;75.57;42.28;;;4.50;94.00;;;;;;4964724;28;20039;-81
2022/12/01 08:27:55;;;;;;;77.93;42.78;;;4.60;94.00;;;;;;4960352;28;20090;-81
2022/12/01 08:30:21;;;;;;;79.20;43.20;;;4.60;94.00;;;;;;4964996;28;20058;-80
2022/12/01 08:32:46;;;;;;;76.10;43.33;;;4.60;93.90;;;;;;4969421;28;20163;-81
2022/12/01 08:35:12;;;;;;;80.25;43.40;;;4.60;93.70;;;;;;4962299;28;20035;-81
2022/12/01 08:37:37;;;;;;;87.07;44.40;;;4.60;93.80;;;;;;4963591;28;20109;-81
2022/12/01 08:40:04;;;;;;;83.35;44.47;;;4.60;93.80;;;;;;4962937;28;20551;-80
2022/12/01 08:42:29;;;;;;;72.78;41.28;;;4.60;93.70;;;;;;4963085;28;20035;-81
2022/12/01 08:44:55;;;;;;;79.75;43.35;;;4.60;93.80;;;;;;4963035;28;20038;-80
2022/12/01 08:47:21;;;;;;;76.60;42.40;;;4.60;93.70;;;;;;4965181;28;20050;-81
2022/12/01 08:49:46;;;;;;;73.35;41.35;;;4.60;93.70;;;;;;4963603;28;20066;-80
2022/12/01 08:52:12;;;;;;;73.00;40.70;;;4.60;93.70;;;;;;4965103;28;20128;-81
2022/12/01 08:54:37;;;;;;;80.97;43.20;;;4.60;93.70;;;;;;4966147;28;20058;-81
2022/12/01 08:57:03;;;;;;;72.45;40.30;;;4.60;93.60;;;;;;4961916;28;20034;-80
2022/12/01 08:59:29;;;;;;;72.13;42.53;;;4.50;93.50;;;;;;4970499;28;20038;-81
2022/12/01 09:01:56;;;;;;;75.68;42.78;;;4.60;93.50;;;;;;4965843;28;20093;-82
2022/12/01 09:04:25;;;;;;;84.65;44.28;;;4.50;93.60;;;;;;4962102;28;20062;-80
2022/12/01 09:06:53;;;;;;;81.03;44.03;;;4.50;93.60;;;;;;4957109;28;20071;-83
2022/12/01 09:09:21;;;;;;;80.43;45.78;;;4.50;93.60;;;;;;4960013;28;20051;-83
2022/12/01 09:11:47;;;;;;;70.95;42.03;;;4.60;93.70;;;;;;4962538;28;20034;-86
2022/12/01 09:14:15;;;;;;;80.18;45.25;;;4.50;93.70;;;;;;4955656;28;20050;-83
2022/12/01 09:16:42;;;;;;;75.47;42.45;;;4.50;93.70;;;;;;4958655;28;20070;-80
2022/12/01 09:19:08;;;;;;;73.80;41.65;;;4.60;93.80;;;;;;4955748;28;20560;-81
2022/12/01 09:21:38;;;;;;;74.38;42.38;;;4.60;93.70;;;;;;4959751;28;20042;-80
2022/12/01 09:24:05;;;;;;;74.80;40.95;;;4.60;93.70;;;;;;4958157;28;20026;-82
2022/12/01 09:26:32;;;;;;;71.53;40.00;;;4.60;93.60;;;;;;4958952;28;20031;-80
2022/12/01 09:29:00;;;;;;;74.65;45.15;;;4.70;93.70;;;;;;4966363;28;20132;-81
2022/12/01 09:31:26;;;;;;;81.80;46.92;;;4.90;93.60;;;;;;4963889;28;20042;-83
2022/12/01 09:33:57;;;;;;;74.55;44.25;;;4.80;93.10;;;;;;4960936;28;20502;-82
2022/12/01 09:36:23;;;;;;;69.63;41.30;;;5.10;93.30;;;;;;4962341;28;20412;-83
2022/12/01 09:38:49;;;;;;;72.45;42.03;;;5.20;93.10;;;;;;4967821;28;20050;-82
2022/12/01 09:41:24;;;;;;;70.95;42.28;;;5.40;93.00;;;;;;4986021;28;20019;-81
2022/12/01 09:43:50;;;;;;;73.25;42.45;;;5.40;92.90;;;;;;4978308;28;20030;-84
2022/12/01 09:46:21;;;;;;;73.72;42.05;;;5.50;92.50;;;;;;4961327;28;20045;-81
2022/12/01 09:48:50;;;;;;;70.32;40.65;;;5.40;92.00;;;;;;4961263;28;20058;-83
2022/12/01 09:51:19;;;;;;;70.22;39.35;;;5.50;92.10;;;;;;4964462;28;20266;-85
2022/12/01 09:53:49;;;;;;;66.35;38.53;;;5.40;91.60;;;;;;4960622;28;20031;-80
2022/12/01 09:56:23;;;;;;;68.28;37.97;;;5.30;91.40;;;;;;4963083;28;20108;-84
2022/12/01 09:58:51;;;;;;;;;;;5.10;91.50;;;;;;4969761;28;20042;-85
2022/12/01 10:01:19;;;;;;;70.55;38.17;;;5.00;91.90;;;;;;4970825;28;19926;-83
2022/12/01 10:03:56;;;;;;;76.38;38.22;;;5.00;92.30;;;;;;4968069;28;20035;-80
2022/12/01 10:06:39;;;;;;;74.05;40.00;;;5.10;92.60;;;;;;4963052;28;20038;-80
2022/12/01 10:09:27;;;;;;;86.07;41.67;;;5.00;92.70;;;;;;4962656;28;20039;-80
2022/12/01 10:12:00;;;;;;;75.30;41.63;;;5.10;92.80;;;;;;4968969;28;20092;-81
2022/12/01 10:14:32;;;;;;;74.45;40.10;;;5.10;93.10;;;;;;4964078;28;20053;-81
2022/12/01 10:17:09;;;;;;;75.93;41.80;;;5.20;93.20;;;;;;4965726;28;20034;-83
2022/12/01 10:19:35;;;;;;;75.18;42.72;;;5.20;93.20;;;;;;4973963;28;20423;-81
2022/12/01 10:22:28;;;;;;;72.72;42.60;;;5.40;93.10;;;;;;4959684;28;20182;-80
2022/12/01 10:24:58;;;;;;;76.43;43.08;;;5.30;92.90;;;;;;4967028;28;20023;-79
2022/12/01 10:27:37;;;;;;;72.68;43.78;;;5.40;93.00;;;;;;4963139;28;20110;-83
2022/12/01 10:30:14;;;;;;;76.25;41.55;;;5.40;93.10;;;;;;4958678;28;20412;-83
2022/12/01 10:32:57;;;;;;;76.85;43.45;;;5.60;93.30;;;;;;4971852;28;20022;-80
2022/12/01 10:35:28;;;;;;;84.05;45.33;;;5.60;93.10;;;;;;4968108;28;20034;-84
2022/12/01 10:38:03;;;;;;;81.53;42.92;;;5.70;93.10;;;;;;4959948;28;20057;-83
2022/12/01 10:40:33;;;;;;;76.72;43.78;;;5.80;93.10;;;;;;4960080;28;20027;-83
2022/12/01 10:42:59;;;;;;;74.07;43.25;;;5.90;93.10;;;;;;4964373;28;20035;-82
2022/12/01 10:45:33;;;;;;;79.38;44.05;;;6.10;93.00;;;;;;4966228;28;20117;-78
2022/12/01 10:48:15;;;;;;;73.20;43.20;;;6.10;92.70;;;;;;4963244;28;20073;-78
2022/12/01 10:50:48;;;;;;;70.60;41.47;;;6.30;92.50;;;;;;4961668;28;20130;-82
2022/12/01 10:53:27;;;;;;;73.95;43.63;;;6.40;92.40;;;;;;4980109;28;20518;-77
2022/12/01 10:56:03;;;;;;;69.25;40.95;;;6.50;92.10;;;;;;4980522;28;20462;-79
2022/12/01 10:58:31;;;;;;;72.35;42.33;;;6.60;91.80;;;;;;4960155;28;20440;-75
2022/12/01 11:01:03;;;;;;;69.78;40.88;;;6.80;91.70;;;;;;4964051;28;20039;-80
2022/12/01 11:03:32;;;;;;;67.32;39.85;;;6.80;90.90;;;;;;4961931;28;20042;-75
2022/12/01 11:06:01;;;;;;;66.80;40.72;;;6.90;91.10;;;;;;4982660;28;20035;-82
2022/12/01 11:08:44;;;;;;;65.88;38.50;;;7.10;90.50;;;;;;4965208;28;20101;-77
2022/12/01 11:11:30;;;;;;;66.65;40.63;;;7.10;90.20;;;;;;4970826;28;20468;-77
2022/12/01 11:13:58;;;;;;;67.63;38.78;;;7.10;89.90;;;;;;4963698;28;20479;-78
2022/12/01 11:16:52;;;;;;;65.88;41.50;;;7.30;89.70;;;;;;4960296;28;20042;-82
2022/12/01 11:19:32;;;;;;;64.03;37.85;;;7.40;89.60;;;;;;4960183;28;20058;-78
2022/12/01 11:22:19;;;;;;;64.45;39.55;;;7.40;89.30;;;;;;4977388;28;20050;-76
2022/12/01 11:24:51;;;;;;;60.33;36.97;;;7.40;89.20;;;;;;4961156;28;20104;-79
2022/12/01 11:27:24;;;;;;;59.28;37.08;;;7.60;89.30;;;;;;4976026;28;20043;-75
2022/12/01 11:29:54;;;;;;;61.00;37.85;;;7.50;88.70;;;;;;4978042;28;20054;-79
2022/12/01 11:32:25;;;;;;;57.95;37.22;;;7.60;88.80;;;;;;4962571;28;20118;-84
2022/12/01 11:35:11;;;;;;;61.92;38.30;;;7.60;88.20;;;;;;4972102;28;20035;-77
2022/12/01 11:37:42;;;;;;;60.58;38.50;;;7.60;88.10;;;;;;4969788;28;20043;-83
2022/12/01 11:40:24;;;;;;;57.72;37.88;;;7.50;88.00;;;;;;4962525;28;20038;-77
2022/12/01 11:42:52;;;;;;;60.35;37.85;;;7.40;88.00;;;;;;4964349;28;20034;-82
2022/12/01 11:45:20;;;;;;;61.22;38.10;;;7.50;88.20;;;;;;4964100;28;20097;-76
2022/12/01 11:48:21;;;;;;;63.05;39.85;;;7.40;88.40;;;;;;4964966;28;20042;-80
2022/12/01 11:51:18;;;;;;;66.32;38.65;;;7.30;88.70;;;;;;4961922;28;20498;-83
2022/12/01 11:53:44;;;;;;;64.50;40.10;;;7.20;88.70;;;;;;4964154;28;20042;-78
2022/12/01 11:56:27;;;;;;;73.07;42.95;;;7.20;88.90;;;;;;4968476;28;20030;-82
2022/12/01 11:59:11;;;;;;;74.40;45.38;;;7.10;89.10;;;;;;4963974;28;20450;-76
2022/12/01 12:02:17;;;;;;;82.05;47.47;;;7.00;89.00;;;;;;4962440;28;20035;-74
2022/12/01 12:05:01;;;;;;;;;;;7.00;89.40;;;;;;4964872;28;20037;-83
2022/12/01 12:07:37;;;;;;;80.90;47.92;;;7.10;89.60;;;;;;4968169;28;20478;-77
2022/12/01 12:10:27;;;;;;;79.50;49.00;;;7.10;89.60;;;;;;4959661;28;20472;-87
2022/12/01 12:13:06;;;;;;;87.72;52.53;;;7.10;89.60;;;;;;4961747;28;20146;-75
2022/12/01 12:15:38;;;;;;;89.03;51.85;;;7.10;89.80;;;;;;4962266;28;20070;-79
2022/12/01 12:18:31;;;;;;;86.80;50.08;;;7.10;90.00;;;;;;4958203;28;20483;-77
2022/12/01 12:21:09;;;;;;;88.22;52.25;;;7.10;89.70;;;;;;4957984;28;20047;-88
2022/12/01 12:23:53;;;;;;;79.40;46.40;;;7.10;89.60;;;;;;4962899;28;20452;-76
2022/12/01 12:26:23;;;;;;;75.13;45.65;;;7.10;89.60;;;;;;4961716;28;20238;-74
2022/12/01 12:28:55;;;;;;;73.55;44.90;;;7.10;89.70;;;;;;4963221;28;20552;-81
2022/12/01 12:31:50;;;;;;;75.53;47.28;;;7.20;89.40;;;;;;4961513;28;20130;-79
2022/12/01 12:34:37;;;;;;;77.15;48.67;;;7.30;89.40;;;;;;4960598;28;20035;-80
2022/12/01 12:37:43;;;;;;;77.40;48.60;;;7.30;89.00;;;;;;4960313;28;20724;-75
2022/12/01 12:40:37;;;;;;;73.47;45.75;;;7.30;88.30;;;;;;4929560;28;20047;-76
2022/12/01 12:43:57;;;;;;;78.90;50.38;;;7.40;88.10;;;;;;4973450;28;20039;-79
2022/12/01 12:46:37;;;;;;;80.68;51.50;;;7.30;87.50;;;;;;4955124;28;20062;-73
2022/12/01 12:49:08;;;;;;;82.03;51.80;;;7.10;87.60;;;;;;4966810;28;20035;-76
2022/12/01 12:51:40;;;;;;;87.72;53.80;;;7.10;87.90;;;;;;4954327;28;20063;-75
2022/12/01 12:54:15;;;;;;;86.63;53.90;;;6.90;88.20;;;;;;4959178;28;20027;-79
2022/12/01 12:56:47;;;;;;;88.43;55.47;;;6.80;88.60;;;;;;4962432;28;20047;-86
2022/12/01 12:59:20;;;;;;;80.38;51.95;;;6.70;88.90;;;;;;4960580;28;20026;-84
2022/12/01 13:02:08;;;;;;;79.22;49.30;;;6.70;89.00;;;;;;4960180;28;20468;-77